Portada
METAR-TAF:

METAR-TAF

Aeropuertos :

Aeropuerto Civil de Amán

Amán, Jordania

latitud: 31-59N, longitud: 035-59E, altitud: 767 m

Observación

El informe se hizo hace 53 minutos, a las 00:00 UTC
Viento 3 kt del este
Temperatura 14°C
Humedad 58%
Presión 1019 hPa
Visibilidad: 5000 m
calima

METAR: OJAM 190000Z 10003KT 5000 HZ NSC 14/06 Q1019 NOSIG

Hora: 02:53 (00:53 UTC)

Pronóstico

El informe se hizo hace 1 hora y 53 minutos, a las 23:00 UTC
Pronóstico válido del 19 a las 00 UTC al 20 a las 06 UTC
Viento 8 kt del este-sureste
Visibilidad: 5000 m
calima
Temporalmente
del 19 a las 00 UTC al 19 a las 06 UTC
Visibilidad: 4000 m
Escasas nubes a una altura de 3000 ft
Nubes dispersas a una altura de 8000 ft
lluvia ligera

TAF: OJAM 182300Z 1900/2006 11008KT 5000 HZ NSC TEMPO 1900/1906 4000 -RA FEW030 SCT080

Observaciones y pronósticos meteorológicos de más de 4000 aeropuertos (mensajes METAR y TAF).

Los puntos amarillos y rojos representan las estaciones disponibles.

Ponga el ratón en el punto deseado para ver el nombre de la estación.

Haga clic para ver las observaciones y los pronósticos meteorológicos.

Para cambiar el mapa : haga clic en los botones verdes con una cruz de color negro para hacer un zoom, en el botón verde con un guión para alejar o en las flechas verdes para mapas adyacentes.


METAR-TAF: